sensor_id;sensor_type;location;lat;lon;timestamp;pressure;altitude;pressure_sealevel;temperature;humidity
72857;BME280;61360;52.134;4.494;2022-07-23T00:00:08;102071.63;;;14.76;76.05
72857;BME280;61360;52.134;4.494;2022-07-23T00:02:35;102069.00;;;14.75;75.84
72857;BME280;61360;52.134;4.494;2022-07-23T00:05:02;102065.47;;;14.76;75.51
72857;BME280;61360;52.134;4.494;2022-07-23T00:07:29;102072.56;;;14.72;76.03
72857;BME280;61360;52.134;4.494;2022-07-23T00:09:56;102072.59;;;14.71;75.82
72857;BME280;61360;52.134;4.494;2022-07-23T00:12:22;102066.50;;;14.64;76.01
72857;BME280;61360;52.134;4.494;2022-07-23T00:14:49;102063.91;;;14.59;76.65
72857;BME280;61360;52.134;4.494;2022-07-23T00:17:15;102047.94;;;14.67;76.82
72857;BME280;61360;52.134;4.494;2022-07-23T00:19:42;102045.38;;;14.61;76.81
72857;BME280;61360;52.134;4.494;2022-07-23T00:22:08;102049.78;;;14.61;76.73
72857;BME280;61360;52.134;4.494;2022-07-23T00:24:35;102048.00;;;14.58;76.55
72857;BME280;61360;52.134;4.494;2022-07-23T00:27:02;102034.81;;;14.56;76.71
72857;BME280;61360;52.134;4.494;2022-07-23T00:29:28;102041.94;;;14.50;76.37
72857;BME280;61360;52.134;4.494;2022-07-23T00:31:55;102036.63;;;14.51;76.66
72857;BME280;61360;52.134;4.494;2022-07-23T00:34:22;102026.16;;;14.45;76.41
72857;BME280;61360;52.134;4.494;2022-07-23T00:36:48;102017.44;;;14.35;76.79
72857;BME280;61360;52.134;4.494;2022-07-23T00:39:15;102025.44;;;14.31;76.96
72857;BME280;61360;52.134;4.494;2022-07-23T00:41:41;102023.63;;;14.33;77.11
72857;BME280;61360;52.134;4.494;2022-07-23T00:44:19;102027.22;;;14.30;76.53
72857;BME280;61360;52.134;4.494;2022-07-23T00:46:57;102036.00;;;14.31;76.88
72857;BME280;61360;52.134;4.494;2022-07-23T00:49:28;102041.31;;;14.28;77.27
72857;BME280;61360;52.134;4.494;2022-07-23T00:51:56;102035.84;;;14.43;77.57
72857;BME280;61360;52.134;4.494;2022-07-23T00:54:25;102027.13;;;14.36;77.81
72857;BME280;61360;52.134;4.494;2022-07-23T00:56:53;102034.28;;;14.28;77.21
72857;BME280;61360;52.134;4.494;2022-07-23T00:59:20;102035.22;;;14.22;77.23
72857;BME280;61360;52.134;4.494;2022-07-23T01:01:47;102024.72;;;14.16;77.22
72857;BME280;61360;52.134;4.494;2022-07-23T01:04:15;102023.88;;;14.14;77.43
72857;BME280;61360;52.134;4.494;2022-07-23T01:06:44;102021.28;;;14.08;77.59
72857;BME280;61360;52.134;4.494;2022-07-23T01:09:11;102020.44;;;14.08;77.56
72857;BME280;61360;52.134;4.494;2022-07-23T01:11:38;102011.56;;;14.10;77.27
72857;BME280;61360;52.134;4.494;2022-07-23T01:14:15;102009.91;;;14.01;77.04
72857;BME280;61360;52.134;4.494;2022-07-23T01:16:43;102016.06;;;14.00;77.09
72857;BME280;61360;52.134;4.494;2022-07-23T01:19:13;102012.53;;;14.03;77.72
72857;BME280;61360;52.134;4.494;2022-07-23T01:21:43;102013.31;;;14.14;78.57
72857;BME280;61360;52.134;4.494;2022-07-23T01:24:13;102015.97;;;14.13;77.83
72857;BME280;61360;52.134;4.494;2022-07-23T01:26:43;102016.91;;;14.06;78.25
72857;BME280;61360;52.134;4.494;2022-07-23T01:29:10;102011.56;;;14.10;77.68
72857;BME280;61360;52.134;4.494;2022-07-23T01:31:37;102015.06;;;14.12;78.29
72857;BME280;61360;52.134;4.494;2022-07-23T01:34:05;102006.28;;;14.10;78.02
72857;BME280;61360;52.134;4.494;2022-07-23T01:36:34;102018.66;;;14.08;78.50
72857;BME280;61360;52.134;4.494;2022-07-23T01:39:01;102022.13;;;14.12;78.21
72857;BME280;61360;52.134;4.494;2022-07-23T01:41:29;102019.59;;;14.02;77.54
72857;BME280;61360;52.134;4.494;2022-07-23T01:43:56;102018.53;;;14.17;77.95
72857;BME280;61360;52.134;4.494;2022-07-23T01:46:23;102016.06;;;14.02;77.81
72857;BME280;61360;52.134;4.494;2022-07-23T01:48:50;102009.09;;;13.93;77.73
72857;BME280;61360;52.134;4.494;2022-07-23T01:51:16;102010.94;;;13.85;77.53
72857;BME280;61360;52.134;4.494;2022-07-23T01:53:43;102017.16;;;13.82;77.40
72857;BME280;61360;52.134;4.494;2022-07-23T01:56:10;102025.94;;;13.84;77.96
72857;BME280;61360;52.134;4.494;2022-07-23T01:58:36;102026.81;;;13.85;77.39
72857;BME280;61360;52.134;4.494;2022-07-23T02:01:03;102028.63;;;13.78;77.54
72857;BME280;61360;52.134;4.494;2022-07-23T02:03:29;102026.94;;;13.73;77.81
72857;BME280;61360;52.134;4.494;2022-07-23T02:05:56;102023.44;;;13.71;78.04
72857;BME280;61360;52.134;4.494;2022-07-23T02:08:23;102022.56;;;13.72;77.97
72857;BME280;61360;52.134;4.494;2022-07-23T02:10:49;102015.53;;;13.66;77.72
72857;BME280;61360;52.134;4.494;2022-07-23T02:13:17;102023.53;;;13.61;77.55
72857;BME280;61360;52.134;4.494;2022-07-23T02:15:46;102017.44;;;13.55;77.79
72857;BME280;61360;52.134;4.494;2022-07-23T02:18:14;102013.00;;;13.55;78.06
72857;BME280;61360;52.134;4.494;2022-07-23T02:20:41;102013.97;;;13.46;78.03
72857;BME280;61360;52.134;4.494;2022-07-23T02:23:08;102016.59;;;13.48;77.43
72857;BME280;61360;52.134;4.494;2022-07-23T02:25:35;102021.91;;;13.46;77.42
72857;BME280;61360;52.134;4.494;2022-07-23T02:28:01;102020.13;;;13.44;77.74
72857;BME280;61360;52.134;4.494;2022-07-23T02:30:29;102025.41;;;13.47;78.17
72857;BME280;61360;52.134;4.494;2022-07-23T02:32:55;102025.41;;;13.47;78.31
72857;BME280;61360;52.134;4.494;2022-07-23T02:35:22;102022.75;;;13.47;78.85
72857;BME280;61360;52.134;4.494;2022-07-23T02:37:49;102022.78;;;13.44;78.72
72857;BME280;61360;52.134;4.494;2022-07-23T02:40:16;102030.69;;;13.47;79.11
72857;BME280;61360;52.134;4.494;2022-07-23T02:42:44;102031.59;;;13.46;79.11
72857;BME280;61360;52.134;4.494;2022-07-23T02:45:10;102023.63;;;13.49;78.74
72857;BME280;61360;52.134;4.494;2022-07-23T02:47:37;102024.53;;;13.50;78.61
72857;BME280;61360;52.134;4.494;2022-07-23T02:50:04;102020.09;;;13.53;78.73
72857;BME280;61360;52.134;4.494;2022-07-23T02:52:31;102029.72;;;13.56;78.76
72857;BME280;61360;52.134;4.494;2022-07-23T02:54:58;102023.59;;;13.54;78.58
72857;BME280;61360;52.134;4.494;2022-07-23T02:57:24;102027.97;;;13.56;78.84
72857;BME280;61360;52.134;4.494;2022-07-23T02:59:51;102028.84;;;13.57;79.29
72857;BME280;61360;52.134;4.494;2022-07-23T03:02:17;102027.97;;;13.56;79.15
72857;BME280;61360;52.134;4.494;2022-07-23T03:04:44;102025.25;;;13.62;79.57
72857;BME280;61360;52.134;4.494;2022-07-23T03:07:10;102024.31;;;13.68;80.61
72857;BME280;61360;52.134;4.494;2022-07-23T03:09:37;102026.13;;;13.66;80.20
72857;BME280;61360;52.134;4.494;2022-07-23T03:12:04;102024.25;;;13.77;80.38
72857;BME280;61360;52.134;4.494;2022-07-23T03:14:30;102017.22;;;13.76;80.11
72857;BME280;61360;52.134;4.494;2022-07-23T03:16:57;102013.72;;;13.74;79.92
72857;BME280;61360;52.134;4.494;2022-07-23T03:19:26;102012.78;;;13.78;80.26
72857;BME280;61360;52.134;4.494;2022-07-23T03:21:52;102019.84;;;13.75;79.32
72857;BME280;61360;52.134;4.494;2022-07-23T03:24:19;102021.66;;;13.73;79.36
72857;BME280;61360;52.134;4.494;2022-07-23T03:26:45;102019.84;;;13.78;79.50
72857;BME280;61360;52.134;4.494;2022-07-23T03:29:12;102024.31;;;13.70;79.41
72857;BME280;61360;52.134;4.494;2022-07-23T03:31:38;102024.41;;;13.60;79.30
72857;BME280;61360;52.134;4.494;2022-07-23T03:34:05;102023.56;;;13.58;79.04
72857;BME280;61360;52.134;4.494;2022-07-23T03:36:31;102020.06;;;13.56;78.80
72857;BME280;61360;52.134;4.494;2022-07-23T03:38:58;102025.34;;;13.55;79.36
72857;BME280;61360;52.134;4.494;2022-07-23T03:41:24;102020.13;;;13.49;78.92
72857;BME280;61360;52.134;4.494;2022-07-23T03:43:51;102025.41;;;13.45;78.98
72857;BME280;61360;52.134;4.494;2022-07-23T03:46:17;102021.03;;;13.44;78.72
72857;BME280;61360;52.134;4.494;2022-07-23T03:48:44;102029.00;;;13.40;78.80
72857;BME280;61360;52.134;4.494;2022-07-23T03:51:10;102037.78;;;13.39;78.26
72857;BME280;61360;52.134;4.494;2022-07-23T03:53:37;102044.84;;;13.37;78.73
72857;BME280;61360;52.134;4.494;2022-07-23T03:56:04;102041.31;;;13.41;78.82
72857;BME280;61360;52.134;4.494;2022-07-23T03:58:30;102036.88;;;13.46;79.13
72857;BME280;61360;52.134;4.494;2022-07-23T04:00:57;102037.66;;;13.53;79.54
72857;BME280;61360;52.134;4.494;2022-07-23T04:03:23;102043.00;;;13.48;79.11
72857;BME280;61360;52.134;4.494;2022-07-23T04:05:50;102041.25;;;13.47;78.96
72857;BME280;61360;52.134;4.494;2022-07-23T04:08:17;102048.31;;;13.45;79.04
72857;BME280;61360;52.134;4.494;2022-07-23T04:10:43;102053.59;;;13.46;79.22
72857;BME280;61360;52.134;4.494;2022-07-23T04:13:10;102052.69;;;13.47;79.94
72857;BME280;61360;52.134;4.494;2022-07-23T04:15:36;102054.41;;;13.52;79.84
72857;BME280;61360;52.134;4.494;2022-07-23T04:18:03;102043.84;;;13.52;79.22
72857;BME280;61360;52.134;4.494;2022-07-23T04:20:30;102050.84;;;13.56;78.84
72857;BME280;61360;52.134;4.494;2022-07-23T04:22:57;102046.41;;;13.59;79.25
72857;BME280;61360;52.134;4.494;2022-07-23T04:25:23;102037.59;;;13.63;78.91
72857;BME280;61360;52.134;4.494;2022-07-23T04:27:50;102042.88;;;13.63;79.58
72857;BME280;61360;52.134;4.494;2022-07-23T04:30:16;102039.28;;;13.71;80.08
72857;BME280;61360;52.134;4.494;2022-07-23T04:32:43;102043.69;;;13.72;79.93
72857;BME280;61360;52.134;4.494;2022-07-23T04:35:09;102044.59;;;13.66;80.63
72857;BME280;61360;52.134;4.494;2022-07-23T04:37:36;102049.88;;;13.68;80.34
72857;BME280;61360;52.134;4.494;2022-07-23T04:40:03;102043.72;;;13.69;79.53
72857;BME280;61360;52.134;4.494;2022-07-23T04:42:30;102047.19;;;13.74;79.47
72857;BME280;61360;52.134;4.494;2022-07-23T04:44:57;102046.22;;;13.82;79.34
72857;BME280;61360;52.134;4.494;2022-07-23T04:47:23;102052.31;;;13.89;80.08
72857;BME280;61360;52.134;4.494;2022-07-23T04:49:50;102047.03;;;13.91;79.54
72857;BME280;61360;52.134;4.494;2022-07-23T04:52:16;102040.81;;;13.93;79.68
72857;BME280;61360;52.134;4.494;2022-07-23T04:54:43;102049.66;;;13.94;79.28
72857;BME280;61360;52.134;4.494;2022-07-23T04:57:09;102043.44;;;13.95;79.81
72857;BME280;61360;52.134;4.494;2022-07-23T04:59:36;102053.03;;;14.05;80.23
72857;BME280;61360;52.134;4.494;2022-07-23T05:02:02;102058.31;;;14.07;80.25
72857;BME280;61360;52.134;4.494;2022-07-23T05:04:29;102059.16;;;14.09;80.33
72857;BME280;61360;52.134;4.494;2022-07-23T05:06:58;102054.66;;;14.20;80.59
72857;BME280;61360;52.134;4.494;2022-07-23T05:09:25;102061.56;;;14.30;80.25
72857;BME280;61360;52.134;4.494;2022-07-23T05:11:52;102063.91;;;14.59;80.10
72857;BME280;61360;52.134;4.494;2022-07-23T05:14:18;102051.81;;;15.05;79.50
72857;BME280;61360;52.134;4.494;2022-07-23T05:16:45;102059.44;;;15.81;76.97
72857;BME280;61360;52.134;4.494;2022-07-23T05:19:11;102047.66;;;16.85;71.57
72857;BME280;61360;52.134;4.494;2022-07-23T05:21:38;102046.75;;;17.96;66.73
72857;BME280;61360;52.134;4.494;2022-07-23T05:24:05;102047.47;;;18.95;63.05
72857;BME280;61360;52.134;4.494;2022-07-23T05:26:32;102056.09;;;19.30;62.63
72857;BME280;61360;52.134;4.494;2022-07-23T05:28:59;102060.56;;;19.83;63.37
72857;BME280;61360;52.134;4.494;2022-07-23T05:31:25;102057.72;;;20.14;62.71
72857;BME280;61360;52.134;4.494;2022-07-23T05:33:52;102049.22;;;20.51;60.96
72857;BME280;61360;52.134;4.494;2022-07-23T05:36:18;102057.13;;;21.00;60.14
72857;BME280;61360;52.134;4.494;2022-07-23T05:38:45;102051.53;;;21.06;59.59
72857;BME280;61360;52.134;4.494;2022-07-23T05:41:11;102050.53;;;21.31;60.03
72857;BME280;61360;52.134;4.494;2022-07-23T05:43:38;102050.00;;;21.65;58.10
72857;BME280;61360;52.134;4.494;2022-07-23T05:46:04;102051.28;;;21.98;57.29
72857;BME280;61360;52.134;4.494;2022-07-23T05:48:31;102061.31;;;22.34;55.15
72857;BME280;61360;52.134;4.494;2022-07-23T05:50:57;102051.63;;;22.50;54.38
72857;BME280;61360;52.134;4.494;2022-07-23T05:53:24;102056.13;;;22.50;55.33
72857;BME280;61360;52.134;4.494;2022-07-23T05:55:51;102052.06;;;23.17;53.75
72857;BME280;61360;52.134;4.494;2022-07-23T05:58:17;102061.56;;;22.67;52.58
72857;BME280;61360;52.134;4.494;2022-07-23T06:00:44;102056.78;;;22.74;52.92
72857;BME280;61360;52.134;4.494;2022-07-23T06:03:10;102055.31;;;23.05;52.89
72857;BME280;61360;52.134;4.494;2022-07-23T06:05:37;102045.28;;;23.27;53.07
72857;BME280;61360;52.134;4.494;2022-07-23T06:08:04;102043.81;;;22.65;54.23
72857;BME280;61360;52.134;4.494;2022-07-23T06:10:30;102049.00;;;22.09;54.59
72857;BME280;61360;52.134;4.494;2022-07-23T06:12:57;102045.38;;;21.69;55.70
72857;BME280;61360;52.134;4.494;2022-07-23T06:15:23;102048.09;;;22.50;54.43
72857;BME280;61360;52.134;4.494;2022-07-23T06:17:50;102055.16;;;22.89;52.89
72857;BME280;61360;52.134;4.494;2022-07-23T06:20:16;102041.81;;;23.25;52.66
72857;BME280;61360;52.134;4.494;2022-07-23T06:22:43;102048.66;;;23.85;51.56
72857;BME280;61360;52.134;4.494;2022-07-23T06:25:09;102065.13;;;24.12;51.11
72857;BME280;61360;52.134;4.494;2022-07-23T06:27:36;102058.59;;;24.34;48.37
72857;BME280;61360;52.134;4.494;2022-07-23T06:30:03;102059.06;;;24.08;48.56
72857;BME280;61360;52.134;4.494;2022-07-23T06:32:29;102053.13;;;22.94;51.57
72857;BME280;61360;52.134;4.494;2022-07-23T06:34:56;102051.03;;;23.01;51.77
72857;BME280;61360;52.134;4.494;2022-07-23T06:37:23;102058.69;;;23.81;49.69
72857;BME280;61360;52.134;4.494;2022-07-23T06:39:49;102060.50;;;23.98;48.83
72857;BME280;61360;52.134;4.494;2022-07-23T06:42:16;102055.09;;;24.16;49.27
72857;BME280;61360;52.134;4.494;2022-07-23T06:44:42;102057.31;;;23.73;48.64
72857;BME280;61360;52.134;4.494;2022-07-23T06:47:09;102067.38;;;23.86;47.69
72857;BME280;61360;52.134;4.494;2022-07-23T06:49:35;102059.22;;;24.05;47.63
72857;BME280;61360;52.134;4.494;2022-07-23T06:52:02;102066.81;;;23.97;47.85
72857;BME280;61360;52.134;4.494;2022-07-23T06:54:28;102067.34;;;24.55;46.45
72857;BME280;61360;52.134;4.494;2022-07-23T06:56:55;102071.50;;;24.60;48.07
72857;BME280;61360;52.134;4.494;2022-07-23T06:59:22;102062.34;;;24.80;46.21
72857;BME280;61360;52.134;4.494;2022-07-23T07:01:49;102076.03;;;24.09;46.61
72857;BME280;61360;52.134;4.494;2022-07-23T07:04:15;102081.72;;;23.68;49.42
72857;BME280;61360;52.134;4.494;2022-07-23T07:06:42;102072.25;;;24.46;48.36
72857;BME280;61360;52.134;4.494;2022-07-23T07:09:08;102082.56;;;24.21;49.70
72857;BME280;61360;52.134;4.494;2022-07-23T07:11:35;102090.34;;;23.92;47.55
72857;BME280;61360;52.134;4.494;2022-07-23T07:14:01;102080.53;;;23.56;48.84
72857;BME280;61360;52.134;4.494;2022-07-23T07:16:28;102077.50;;;23.81;47.00
72857;BME280;61360;52.134;4.494;2022-07-23T07:18:55;102077.41;;;24.00;47.45
72857;BME280;61360;52.134;4.494;2022-07-23T07:21:21;102078.47;;;23.79;48.58
72857;BME280;61360;52.134;4.494;2022-07-23T07:23:48;102080.22;;;23.80;47.74
72857;BME280;61360;52.134;4.494;2022-07-23T07:26:14;102086.69;;;24.11;48.09
72857;BME280;61360;52.134;4.494;2022-07-23T07:28:41;102087.16;;;24.19;47.93
72857;BME280;61360;52.134;4.494;2022-07-23T07:31:07;102088.19;;;24.16;48.97
72857;BME280;61360;52.134;4.494;2022-07-23T07:33:34;102087.38;;;24.32;47.47
72857;BME280;61360;52.134;4.494;2022-07-23T07:36:00;102083.66;;;24.68;47.23
72857;BME280;61360;52.134;4.494;2022-07-23T07:38:27;102089.75;;;24.87;48.13
72857;BME280;61360;52.134;4.494;2022-07-23T07:40:53;102078.44;;;25.12;47.22
72857;BME280;61360;52.134;4.494;2022-07-23T07:43:20;102086.25;;;24.36;47.15
72857;BME280;61360;52.134;4.494;2022-07-23T07:45:46;102083.28;;;24.58;46.34
72857;BME280;61360;52.134;4.494;2022-07-23T07:48:13;102074.84;;;24.97;47.22
72857;BME280;61360;52.134;4.494;2022-07-23T07:50:39;102084.84;;;25.42;45.53
72857;BME280;61360;52.134;4.494;2022-07-23T07:53:06;102089.63;;;25.83;43.79
72857;BME280;61360;52.134;4.494;2022-07-23T07:55:32;102087.75;;;25.69;45.49
72857;BME280;61360;52.134;4.494;2022-07-23T07:57:59;102090.31;;;25.56;44.46
72857;BME280;61360;52.134;4.494;2022-07-23T08:00:25;102097.84;;;25.96;45.54
72857;BME280;61360;52.134;4.494;2022-07-23T08:02:53;102094.13;;;25.52;43.75
72857;BME280;61360;52.134;4.494;2022-07-23T08:05:27;102091.47;;;24.88;45.17
72857;BME280;61360;52.134;4.494;2022-07-23T08:07:56;102095.00;;;24.57;44.70
72857;BME280;61360;52.134;4.494;2022-07-23T08:10:26;102091.72;;;24.83;44.27
72857;BME280;61360;52.134;4.494;2022-07-23T08:12:55;102099.03;;;25.45;44.77
72857;BME280;61360;52.134;4.494;2022-07-23T08:15:28;102093.91;;;25.25;44.08
72857;BME280;61360;52.134;4.494;2022-07-23T08:17:56;102083.31;;;25.22;45.63
72857;BME280;61360;52.134;4.494;2022-07-23T08:20:24;102095.94;;;25.98;45.01
72857;BME280;61360;52.134;4.494;2022-07-23T08:22:58;102108.06;;;26.05;44.08
72857;BME280;61360;52.134;4.494;2022-07-23T08:25:33;102108.16;;;25.73;43.79
72857;BME280;61360;52.134;4.494;2022-07-23T08:28:06;102104.56;;;25.88;45.11
72857;BME280;61360;52.134;4.494;2022-07-23T08:30:36;102108.38;;;25.84;45.10
72857;BME280;61360;52.134;4.494;2022-07-23T08:33:06;102100.91;;;25.59;44.27
72857;BME280;61360;52.134;4.494;2022-07-23T08:35:39;102106.75;;;26.12;43.24
72857;BME280;61360;52.134;4.494;2022-07-23T08:38:10;102104.75;;;26.44;44.68
72857;BME280;61360;52.134;4.494;2022-07-23T08:40:39;102104.75;;;26.73;44.41
72857;BME280;61360;52.134;4.494;2022-07-23T08:43:09;102102.03;;;26.73;42.16
72857;BME280;61360;52.134;4.494;2022-07-23T08:45:40;102103.22;;;26.55;43.05
72857;BME280;61360;52.134;4.494;2022-07-23T08:48:20;102108.50;;;26.42;43.54
72857;BME280;61360;52.134;4.494;2022-07-23T08:50:55;102111.97;;;26.73;42.85
72857;BME280;61360;52.134;4.494;2022-07-23T08:53:25;102114.88;;;26.84;43.07
72857;BME280;61360;52.134;4.494;2022-07-23T08:55:55;102112.41;;;27.08;42.43
72857;BME280;61360;52.134;4.494;2022-07-23T08:58:24;102111.56;;;26.21;43.63
72857;BME280;61360;52.134;4.494;2022-07-23T09:00:51;102110.41;;;25.34;44.04
72857;BME280;61360;52.134;4.494;2022-07-23T09:03:23;102113.72;;;25.70;45.45
72857;BME280;61360;52.134;4.494;2022-07-23T09:05:55;102111.00;;;25.24;43.80
72857;BME280;61360;52.134;4.494;2022-07-23T09:08:25;102116.28;;;24.77;45.13
72857;BME280;61360;52.134;4.494;2022-07-23T09:11:01;102117.66;;;25.64;44.71
72857;BME280;61360;52.134;4.494;2022-07-23T09:16:15;102106.19;;;27.20;42.79
72857;BME280;61360;52.134;4.494;2022-07-23T09:21:39;102113.66;;;27.44;43.19
72857;BME280;61360;52.134;4.494;2022-07-23T09:24:11;102117.09;;;27.19;44.63
72857;BME280;61360;52.134;4.494;2022-07-23T09:26:43;102116.09;;;26.78;44.36
72857;BME280;61360;52.134;4.494;2022-07-23T09:29:27;102110.78;;;26.34;43.94
72857;BME280;61360;52.134;4.494;2022-07-23T09:32:02;102113.00;;;26.56;42.47
72857;BME280;61360;52.134;4.494;2022-07-23T09:34:35;102115.53;;;26.59;42.64
72857;BME280;61360;52.134;4.494;2022-07-23T09:37:11;102109.13;;;27.03;41.07
72857;BME280;61360;52.134;4.494;2022-07-23T09:39:46;102114.91;;;26.97;43.30
72857;BME280;61360;52.134;4.494;2022-07-23T09:42:24;102110.59;;;26.94;42.44
72857;BME280;61360;52.134;4.494;2022-07-23T09:44:58;102115.19;;;27.06;43.26
72857;BME280;61360;52.134;4.494;2022-07-23T09:47:28;102111.97;;;26.73;42.87
72857;BME280;61360;52.134;4.494;2022-07-23T09:50:07;102109.88;;;27.47;40.80
72857;BME280;61360;52.134;4.494;2022-07-23T09:52:43;102117.53;;;26.98;42.54
72857;BME280;61360;52.134;4.494;2022-07-23T09:55:10;102114.25;;;26.21;44.12
72857;BME280;61360;52.134;4.494;2022-07-23T09:57:37;102115.19;;;27.06;41.47
72857;BME280;61360;52.134;4.494;2022-07-23T10:00:08;102123.19;;;26.66;41.54
72857;BME280;61360;52.134;4.494;2022-07-23T10:02:37;102123.25;;;25.75;44.54
72857;BME280;61360;52.134;4.494;2022-07-23T10:05:05;102122.09;;;26.55;42.08
72857;BME280;61360;52.134;4.494;2022-07-23T10:07:38;102119.28;;;26.99;41.32
72857;BME280;61360;52.134;4.494;2022-07-23T10:10:06;102119.78;;;27.73;41.81
72857;BME280;61360;52.134;4.494;2022-07-23T10:12:34;102118.41;;;27.40;40.29
72857;BME280;61360;52.134;4.494;2022-07-23T10:15:05;102125.63;;;27.67;40.11
72857;BME280;61360;52.134;4.494;2022-07-23T10:17:33;102116.41;;;27.97;39.60
72857;BME280;61360;52.134;4.494;2022-07-23T10:20:01;102119.88;;;27.59;39.98
72857;BME280;61360;52.134;4.494;2022-07-23T10:22:33;102113.53;;;27.18;41.13
72857;BME280;61360;52.134;4.494;2022-07-23T10:25:10;102115.59;;;27.00;41.48
72857;BME280;61360;52.134;4.494;2022-07-23T10:34:17;102113.34;;;27.89;41.45
72857;BME280;61360;52.134;4.494;2022-07-23T10:37:25;102111.44;;;28.04;40.42
72857;BME280;61360;52.134;4.494;2022-07-23T10:40:18;102107.00;;;29.41;40.05
72857;BME280;61360;52.134;4.494;2022-07-23T10:42:50;102104.78;;;28.85;37.42
72857;BME280;61360;52.134;4.494;2022-07-23T10:45:35;102102.38;;;29.06;38.17
72857;BME280;61360;52.134;4.494;2022-07-23T10:48:23;102094.91;;;29.34;38.08
72857;BME280;61360;52.134;4.494;2022-07-23T10:51:15;102097.47;;;29.59;38.12
72857;BME280;61360;52.134;4.494;2022-07-23T10:53:53;102096.59;;;29.94;37.80
72857;BME280;61360;52.134;4.494;2022-07-23T10:59:22;102093.94;;;30.28;35.56
72857;BME280;61360;52.134;4.494;2022-07-23T11:01:49;102102.38;;;30.82;35.63
72857;BME280;61360;52.134;4.494;2022-07-23T11:04:16;102095.09;;;30.37;34.75
72857;BME280;61360;52.134;4.494;2022-07-23T11:09:24;102098.41;;;30.74;35.67
72857;BME280;61360;52.134;4.494;2022-07-23T11:15:04;102092.06;;;31.51;33.35
72857;BME280;61360;52.134;4.494;2022-07-23T11:25:12;102093.75;;;31.64;33.27
72857;BME280;61360;52.134;4.494;2022-07-23T11:28:13;102088.44;;;31.30;33.76
72857;BME280;61360;52.134;4.494;2022-07-23T11:30:47;102091.97;;;31.42;32.99
72857;BME280;61360;52.134;4.494;2022-07-23T11:35:42;102087.66;;;31.39;33.86
72857;BME280;61360;52.134;4.494;2022-07-23T11:38:22;102093.94;;;30.28;31.71
72857;BME280;61360;52.134;4.494;2022-07-23T11:40:54;102095.53;;;29.00;34.36
72857;BME280;61360;52.134;4.494;2022-07-23T11:43:24;102089.31;;;29.24;35.17
72857;BME280;61360;52.134;4.494;2022-07-23T11:45:57;102089.97;;;30.10;36.39
72857;BME280;61360;52.134;4.494;2022-07-23T11:48:27;102082.34;;;30.03;34.79
72857;BME280;61360;52.134;4.494;2022-07-23T11:50:56;102076.84;;;30.50;34.10
72857;BME280;61360;52.134;4.494;2022-07-23T11:53:30;102080.84;;;29.99;35.68
72857;BME280;61360;52.134;4.494;2022-07-23T11:56:09;102079.53;;;30.73;35.38
72857;BME280;61360;52.134;4.494;2022-07-23T11:58:38;102064.09;;;30.85;33.00
72857;BME280;61360;52.134;4.494;2022-07-23T12:01:20;102066.13;;;30.60;32.15
72857;BME280;61360;52.134;4.494;2022-07-23T12:03:51;102061.38;;;29.94;31.76
72857;BME280;61360;52.134;4.494;2022-07-23T12:06:18;102067.78;;;29.58;35.05
72857;BME280;61360;52.134;4.494;2022-07-23T12:08:44;102072.16;;;30.52;35.13
72857;BME280;61360;52.134;4.494;2022-07-23T12:11:12;102062.88;;;30.77;31.92
72857;BME280;61360;52.134;4.494;2022-07-23T12:13:39;102066.03;;;28.34;34.18
72857;BME280;61360;52.134;4.494;2022-07-23T12:16:06;102071.38;;;29.10;35.98
72857;BME280;61360;52.134;4.494;2022-07-23T12:18:34;102064.91;;;29.72;32.83
72857;BME280;61360;52.134;4.494;2022-07-23T12:21:04;102071.25;;;30.18;34.41
72857;BME280;61360;52.134;4.494;2022-07-23T12:23:32;102066.84;;;30.73;34.11
72857;BME280;61360;52.134;4.494;2022-07-23T12:26:02;102062.66;;;30.58;31.20
72857;BME280;61360;52.134;4.494;2022-07-23T12:28:31;102064.97;;;30.17;34.27
72857;BME280;61360;52.134;4.494;2022-07-23T12:30:59;102058.22;;;30.68;35.61
72857;BME280;61360;52.134;4.494;2022-07-23T12:33:27;102059.66;;;30.72;34.13
72857;BME280;61360;52.134;4.494;2022-07-23T12:36:01;102054.50;;;31.24;35.37
72857;BME280;61360;52.134;4.494;2022-07-23T12:38:48;102057.81;;;30.84;32.69
72857;BME280;61360;52.134;4.494;2022-07-23T12:41:15;102054.66;;;31.11;33.38
72857;BME280;61360;52.134;4.494;2022-07-23T12:43:43;102057.69;;;31.62;31.36
72857;BME280;61360;52.134;4.494;2022-07-23T12:46:16;102049.59;;;31.39;32.89
72857;BME280;61360;52.134;4.494;2022-07-23T12:51:29;102050.25;;;31.64;34.24
72857;BME280;61360;52.134;4.494;2022-07-23T12:54:06;102043.22;;;31.29;33.21
72857;BME280;61360;52.134;4.494;2022-07-23T12:56:37;102043.47;;;31.05;32.41
72857;BME280;61360;52.134;4.494;2022-07-23T12:59:08;102053.69;;;31.66;33.03
72857;BME280;61360;52.134;4.494;2022-07-23T13:01:44;102045.41;;;31.67;34.35
72857;BME280;61360;52.134;4.494;2022-07-23T13:04:18;102047.44;;;31.33;34.03
72857;BME280;61360;52.134;4.494;2022-07-23T13:06:48;102055.63;;;30.33;37.46
72857;BME280;61360;52.134;4.494;2022-07-23T13:09:25;102056.38;;;28.93;40.20
72857;BME280;61360;52.134;4.494;2022-07-23T13:11:54;102054.78;;;28.90;40.67
72857;BME280;61360;52.134;4.494;2022-07-23T13:14:22;102056.28;;;28.58;40.67
72857;BME280;61360;52.134;4.494;2022-07-23T13:16:51;102045.25;;;29.93;38.36
72857;BME280;61360;52.134;4.494;2022-07-23T13:19:20;102047.59;;;30.09;39.67
72857;BME280;61360;52.134;4.494;2022-07-23T13:21:50;102053.03;;;29.26;40.10
72857;BME280;61360;52.134;4.494;2022-07-23T13:24:16;102051.06;;;29.64;38.70
72857;BME280;61360;52.134;4.494;2022-07-23T13:26:43;102059.53;;;29.59;40.62
72857;BME280;61360;52.134;4.494;2022-07-23T13:29:10;102050.59;;;29.35;40.69
72857;BME280;61360;52.134;4.494;2022-07-23T13:31:37;102056.50;;;29.75;39.47